sensor_id;sensor_type;location;lat;lon;timestamp;P1;durP1;ratioP1;P2;durP2;ratioP2
48651;SDS011;34442;52.362;-1.302;2023-06-10T00:02:20;7.93;;;4.68;;
48651;SDS011;34442;52.362;-1.302;2023-06-10T00:04:46;9.77;;;5.18;;
48651;SDS011;34442;52.362;-1.302;2023-06-10T00:07:11;6.88;;;3.58;;
48651;SDS011;34442;52.362;-1.302;2023-06-10T00:09:37;10.18;;;3.97;;
48651;SDS011;34442;52.362;-1.302;2023-06-10T00:12:04;6.50;;;3.60;;
48651;SDS011;34442;52.362;-1.302;2023-06-10T00:14:30;6.93;;;3.70;;
48651;SDS011;34442;52.362;-1.302;2023-06-10T00:16:56;8.48;;;4.20;;
48651;SDS011;34442;52.362;-1.302;2023-06-10T00:19:22;8.63;;;3.95;;
48651;SDS011;34442;52.362;-1.302;2023-06-10T00:21:50;11.02;;;4.93;;
48651;SDS011;34442;52.362;-1.302;2023-06-10T00:24:17;6.38;;;3.92;;
48651;SDS011;34442;52.362;-1.302;2023-06-10T00:26:43;6.20;;;3.40;;
48651;SDS011;34442;52.362;-1.302;2023-06-10T00:29:08;5.68;;;3.40;;
48651;SDS011;34442;52.362;-1.302;2023-06-10T00:31:34;9.55;;;4.32;;
48651;SDS011;34442;52.362;-1.302;2023-06-10T00:34:01;6.90;;;4.03;;
48651;SDS011;34442;52.362;-1.302;2023-06-10T00:36:27;8.32;;;3.85;;
48651;SDS011;34442;52.362;-1.302;2023-06-10T00:38:53;7.68;;;4.32;;
48651;SDS011;34442;52.362;-1.302;2023-06-10T00:41:18;7.28;;;3.75;;
48651;SDS011;34442;52.362;-1.302;2023-06-10T00:43:44;5.20;;;3.28;;
48651;SDS011;34442;52.362;-1.302;2023-06-10T00:46:11;7.45;;;3.70;;
48651;SDS011;34442;52.362;-1.302;2023-06-10T00:48:39;8.27;;;4.40;;
48651;SDS011;34442;52.362;-1.302;2023-06-10T00:51:05;9.77;;;4.35;;
48651;SDS011;34442;52.362;-1.302;2023-06-10T00:53:34;6.70;;;4.03;;
48651;SDS011;34442;52.362;-1.302;2023-06-10T00:56:00;7.07;;;4.68;;
48651;SDS011;34442;52.362;-1.302;2023-06-10T00:58:26;7.03;;;4.13;;
48651;SDS011;34442;52.362;-1.302;2023-06-10T01:00:52;9.13;;;4.47;;
48651;SDS011;34442;52.362;-1.302;2023-06-10T01:03:18;6.95;;;3.97;;
48651;SDS011;34442;52.362;-1.302;2023-06-10T01:05:43;7.38;;;3.42;;
48651;SDS011;34442;52.362;-1.302;2023-06-10T01:08:20;10.48;;;4.82;;
48651;SDS011;34442;52.362;-1.302;2023-06-10T01:11:01;12.30;;;6.07;;
48651;SDS011;34442;52.362;-1.302;2023-06-10T01:16:00;6.35;;;3.65;;
48651;SDS011;34442;52.362;-1.302;2023-06-10T01:18:30;6.82;;;3.25;;
48651;SDS011;34442;52.362;-1.302;2023-06-10T01:20:56;5.82;;;3.55;;
48651;SDS011;34442;52.362;-1.302;2023-06-10T01:23:22;9.20;;;4.47;;
48651;SDS011;34442;52.362;-1.302;2023-06-10T01:33:51;9.50;;;5.15;;
48651;SDS011;34442;52.362;-1.302;2023-06-10T01:36:18;8.75;;;4.10;;
48651;SDS011;34442;52.362;-1.302;2023-06-10T01:38:47;8.18;;;3.97;;
48651;SDS011;34442;52.362;-1.302;2023-06-10T01:41:17;8.77;;;3.67;;
48651;SDS011;34442;52.362;-1.302;2023-06-10T01:43:46;13.68;;;5.05;;
48651;SDS011;34442;52.362;-1.302;2023-06-10T01:46:12;8.32;;;4.50;;
48651;SDS011;34442;52.362;-1.302;2023-06-10T01:48:38;5.85;;;3.50;;
48651;SDS011;34442;52.362;-1.302;2023-06-10T01:51:04;13.18;;;6.47;;
48651;SDS011;34442;52.362;-1.302;2023-06-10T01:53:30;11.65;;;6.72;;
48651;SDS011;34442;52.362;-1.302;2023-06-10T01:55:55;8.38;;;4.22;;
48651;SDS011;34442;52.362;-1.302;2023-06-10T01:58:21;9.40;;;4.95;;
48651;SDS011;34442;52.362;-1.302;2023-06-10T02:00:46;6.15;;;4.20;;
48651;SDS011;34442;52.362;-1.302;2023-06-10T02:03:11;10.73;;;5.35;;
48651;SDS011;34442;52.362;-1.302;2023-06-10T02:05:37;9.65;;;4.55;;
48651;SDS011;34442;52.362;-1.302;2023-06-10T02:08:02;9.65;;;5.28;;
48651;SDS011;34442;52.362;-1.302;2023-06-10T02:10:28;11.40;;;6.07;;
48651;SDS011;34442;52.362;-1.302;2023-06-10T02:12:54;7.35;;;4.82;;
48651;SDS011;34442;52.362;-1.302;2023-06-10T02:15:20;9.18;;;5.00;;
48651;SDS011;34442;52.362;-1.302;2023-06-10T02:17:45;10.35;;;5.13;;
48651;SDS011;34442;52.362;-1.302;2023-06-10T02:20:11;9.07;;;4.65;;
48651;SDS011;34442;52.362;-1.302;2023-06-10T02:22:36;9.50;;;4.95;;
48651;SDS011;34442;52.362;-1.302;2023-06-10T02:25:02;6.80;;;4.18;;
48651;SDS011;34442;52.362;-1.302;2023-06-10T02:27:29;9.35;;;5.18;;
48651;SDS011;34442;52.362;-1.302;2023-06-10T02:29:57;8.77;;;5.07;;
48651;SDS011;34442;52.362;-1.302;2023-06-10T02:32:23;7.57;;;4.45;;
48651;SDS011;34442;52.362;-1.302;2023-06-10T02:34:48;8.50;;;4.47;;
48651;SDS011;34442;52.362;-1.302;2023-06-10T02:37:14;7.53;;;4.80;;
48651;SDS011;34442;52.362;-1.302;2023-06-10T02:39:40;6.93;;;3.65;;
48651;SDS011;34442;52.362;-1.302;2023-06-10T02:42:06;6.63;;;3.95;;
48651;SDS011;34442;52.362;-1.302;2023-06-10T02:44:32;7.55;;;4.35;;
48651;SDS011;34442;52.362;-1.302;2023-06-10T02:46:57;6.13;;;3.88;;
48651;SDS011;34442;52.362;-1.302;2023-06-10T02:49:23;11.52;;;6.07;;
48651;SDS011;34442;52.362;-1.302;2023-06-10T02:51:49;9.50;;;5.10;;
48651;SDS011;34442;52.362;-1.302;2023-06-10T02:54:18;7.57;;;4.47;;
48651;SDS011;34442;52.362;-1.302;2023-06-10T02:56:44;7.35;;;4.28;;
48651;SDS011;34442;52.362;-1.302;2023-06-10T02:59:10;15.60;;;8.10;;
48651;SDS011;34442;52.362;-1.302;2023-06-10T03:01:36;8.98;;;4.68;;
48651;SDS011;34442;52.362;-1.302;2023-06-10T03:04:02;8.43;;;5.15;;
48651;SDS011;34442;52.362;-1.302;2023-06-10T03:06:31;8.25;;;4.32;;
48651;SDS011;34442;52.362;-1.302;2023-06-10T03:08:58;9.13;;;4.03;;
48651;SDS011;34442;52.362;-1.302;2023-06-10T03:11:24;9.00;;;5.45;;
48651;SDS011;34442;52.362;-1.302;2023-06-10T03:13:51;8.73;;;4.82;;
48651;SDS011;34442;52.362;-1.302;2023-06-10T03:16:17;7.15;;;4.60;;
48651;SDS011;34442;52.362;-1.302;2023-06-10T03:18:43;5.78;;;3.50;;
48651;SDS011;34442;52.362;-1.302;2023-06-10T03:21:09;7.85;;;4.75;;
48651;SDS011;34442;52.362;-1.302;2023-06-10T03:23:34;6.95;;;4.20;;
48651;SDS011;34442;52.362;-1.302;2023-06-10T03:26:00;8.43;;;4.20;;
48651;SDS011;34442;52.362;-1.302;2023-06-10T03:28:25;10.13;;;5.20;;
48651;SDS011;34442;52.362;-1.302;2023-06-10T03:30:51;7.60;;;4.53;;
48651;SDS011;34442;52.362;-1.302;2023-06-10T03:33:17;9.07;;;4.80;;
48651;SDS011;34442;52.362;-1.302;2023-06-10T03:35:42;10.52;;;4.80;;
48651;SDS011;34442;52.362;-1.302;2023-06-10T03:38:08;9.18;;;5.50;;
48651;SDS011;34442;52.362;-1.302;2023-06-10T03:40:34;7.88;;;5.07;;
48651;SDS011;34442;52.362;-1.302;2023-06-10T03:43:00;7.45;;;4.95;;
48651;SDS011;34442;52.362;-1.302;2023-06-10T03:45:26;7.88;;;4.93;;
48651;SDS011;34442;52.362;-1.302;2023-06-10T03:47:53;8.68;;;4.80;;
48651;SDS011;34442;52.362;-1.302;2023-06-10T03:50:19;11.23;;;6.30;;
48651;SDS011;34442;52.362;-1.302;2023-06-10T03:52:45;5.63;;;3.92;;
48651;SDS011;34442;52.362;-1.302;2023-06-10T03:55:12;6.93;;;4.35;;
48651;SDS011;34442;52.362;-1.302;2023-06-10T03:57:38;8.27;;;5.43;;
48651;SDS011;34442;52.362;-1.302;2023-06-10T04:00:04;6.47;;;3.92;;
48651;SDS011;34442;52.362;-1.302;2023-06-10T04:02:37;9.77;;;4.97;;
48651;SDS011;34442;52.362;-1.302;2023-06-10T04:05:02;10.77;;;6.57;;
48651;SDS011;34442;52.362;-1.302;2023-06-10T04:07:28;9.35;;;5.80;;
48651;SDS011;34442;52.362;-1.302;2023-06-10T04:09:54;10.63;;;5.57;;
48651;SDS011;34442;52.362;-1.302;2023-06-10T04:12:19;8.95;;;4.32;;
48651;SDS011;34442;52.362;-1.302;2023-06-10T04:14:44;8.82;;;4.45;;
48651;SDS011;34442;52.362;-1.302;2023-06-10T04:17:10;8.82;;;4.93;;
48651;SDS011;34442;52.362;-1.302;2023-06-10T04:19:36;8.15;;;4.82;;
48651;SDS011;34442;52.362;-1.302;2023-06-10T04:22:02;8.45;;;5.50;;
48651;SDS011;34442;52.362;-1.302;2023-06-10T04:24:28;7.97;;;4.90;;
48651;SDS011;34442;52.362;-1.302;2023-06-10T04:26:54;8.50;;;5.03;;
48651;SDS011;34442;52.362;-1.302;2023-06-10T04:29:19;9.70;;;5.88;;
48651;SDS011;34442;52.362;-1.302;2023-06-10T04:31:45;9.52;;;5.50;;
48651;SDS011;34442;52.362;-1.302;2023-06-10T04:34:11;10.30;;;5.13;;
48651;SDS011;34442;52.362;-1.302;2023-06-10T04:36:37;7.68;;;4.63;;
48651;SDS011;34442;52.362;-1.302;2023-06-10T04:39:03;9.90;;;6.38;;
48651;SDS011;34442;52.362;-1.302;2023-06-10T04:41:30;8.85;;;5.78;;
48651;SDS011;34442;52.362;-1.302;2023-06-10T04:43:56;12.18;;;7.50;;
48651;SDS011;34442;52.362;-1.302;2023-06-10T04:46:21;11.52;;;6.40;;
48651;SDS011;34442;52.362;-1.302;2023-06-10T04:48:47;9.45;;;5.95;;
48651;SDS011;34442;52.362;-1.302;2023-06-10T04:51:12;11.15;;;6.45;;
48651;SDS011;34442;52.362;-1.302;2023-06-10T04:53:38;7.63;;;4.80;;
48651;SDS011;34442;52.362;-1.302;2023-06-10T04:56:04;7.38;;;4.72;;
48651;SDS011;34442;52.362;-1.302;2023-06-10T04:58:29;8.48;;;5.07;;
48651;SDS011;34442;52.362;-1.302;2023-06-10T05:00:55;14.15;;;7.15;;
48651;SDS011;34442;52.362;-1.302;2023-06-10T05:03:20;13.85;;;8.63;;
48651;SDS011;34442;52.362;-1.302;2023-06-10T05:05:46;13.70;;;8.25;;
48651;SDS011;34442;52.362;-1.302;2023-06-10T05:08:14;10.20;;;7.45;;
48651;SDS011;34442;52.362;-1.302;2023-06-10T05:10:40;13.23;;;6.93;;
48651;SDS011;34442;52.362;-1.302;2023-06-10T05:13:06;11.05;;;7.22;;
48651;SDS011;34442;52.362;-1.302;2023-06-10T05:15:31;9.20;;;6.57;;
48651;SDS011;34442;52.362;-1.302;2023-06-10T05:17:57;10.70;;;6.50;;
48651;SDS011;34442;52.362;-1.302;2023-06-10T05:20:27;11.35;;;7.03;;
48651;SDS011;34442;52.362;-1.302;2023-06-10T05:22:53;10.90;;;7.68;;
48651;SDS011;34442;52.362;-1.302;2023-06-10T05:25:19;15.80;;;8.18;;
48651;SDS011;34442;52.362;-1.302;2023-06-10T05:27:45;13.38;;;7.63;;
48651;SDS011;34442;52.362;-1.302;2023-06-10T05:30:10;14.73;;;7.82;;
48651;SDS011;34442;52.362;-1.302;2023-06-10T05:32:37;10.07;;;6.25;;
48651;SDS011;34442;52.362;-1.302;2023-06-10T05:35:02;13.05;;;7.78;;
48651;SDS011;34442;52.362;-1.302;2023-06-10T05:37:29;12.68;;;7.07;;
48651;SDS011;34442;52.362;-1.302;2023-06-10T05:39:55;11.25;;;6.45;;
48651;SDS011;34442;52.362;-1.302;2023-06-10T05:42:21;10.88;;;7.00;;
48651;SDS011;34442;52.362;-1.302;2023-06-10T05:44:46;10.82;;;7.10;;
48651;SDS011;34442;52.362;-1.302;2023-06-10T05:47:12;9.80;;;6.18;;
48651;SDS011;34442;52.362;-1.302;2023-06-10T05:49:37;12.88;;;7.75;;
48651;SDS011;34442;52.362;-1.302;2023-06-10T05:52:03;9.82;;;6.10;;
48651;SDS011;34442;52.362;-1.302;2023-06-10T05:54:29;12.20;;;8.18;;
48651;SDS011;34442;52.362;-1.302;2023-06-10T05:56:54;12.43;;;8.68;;
48651;SDS011;34442;52.362;-1.302;2023-06-10T05:59:19;10.32;;;7.22;;
48651;SDS011;34442;52.362;-1.302;2023-06-10T06:01:45;11.27;;;7.68;;
48651;SDS011;34442;52.362;-1.302;2023-06-10T06:04:10;13.27;;;7.82;;
48651;SDS011;34442;52.362;-1.302;2023-06-10T06:06:38;13.48;;;7.47;;
48651;SDS011;34442;52.362;-1.302;2023-06-10T06:09:05;10.32;;;6.75;;
48651;SDS011;34442;52.362;-1.302;2023-06-10T06:11:30;9.63;;;6.53;;
48651;SDS011;34442;52.362;-1.302;2023-06-10T06:13:56;12.27;;;8.05;;
48651;SDS011;34442;52.362;-1.302;2023-06-10T06:16:21;10.85;;;6.25;;
48651;SDS011;34442;52.362;-1.302;2023-06-10T06:18:46;9.65;;;5.20;;
48651;SDS011;34442;52.362;-1.302;2023-06-10T06:21:12;10.73;;;5.95;;
48651;SDS011;34442;52.362;-1.302;2023-06-10T06:23:38;13.10;;;7.88;;
48651;SDS011;34442;52.362;-1.302;2023-06-10T06:26:03;12.95;;;7.88;;
48651;SDS011;34442;52.362;-1.302;2023-06-10T06:28:28;9.90;;;6.70;;
48651;SDS011;34442;52.362;-1.302;2023-06-10T06:30:57;10.43;;;6.35;;
48651;SDS011;34442;52.362;-1.302;2023-06-10T06:33:22;9.90;;;6.75;;
48651;SDS011;34442;52.362;-1.302;2023-06-10T06:35:47;10.00;;;6.07;;
48651;SDS011;34442;52.362;-1.302;2023-06-10T06:38:13;9.55;;;5.30;;
48651;SDS011;34442;52.362;-1.302;2023-06-10T06:40:38;10.77;;;6.53;;
48651;SDS011;34442;52.362;-1.302;2023-06-10T06:43:04;10.52;;;6.50;;
48651;SDS011;34442;52.362;-1.302;2023-06-10T06:45:29;12.07;;;7.18;;
48651;SDS011;34442;52.362;-1.302;2023-06-10T06:47:55;10.27;;;7.00;;
48651;SDS011;34442;52.362;-1.302;2023-06-10T06:50:21;8.43;;;5.75;;
48651;SDS011;34442;52.362;-1.302;2023-06-10T06:52:47;9.90;;;5.30;;
48651;SDS011;34442;52.362;-1.302;2023-06-10T06:55:12;15.90;;;9.82;;
48651;SDS011;34442;52.362;-1.302;2023-06-10T06:57:38;11.75;;;6.07;;
48651;SDS011;34442;52.362;-1.302;2023-06-10T07:00:03;12.60;;;6.93;;
48651;SDS011;34442;52.362;-1.302;2023-06-10T07:02:29;8.93;;;5.20;;
48651;SDS011;34442;52.362;-1.302;2023-06-10T07:04:57;14.25;;;7.25;;
48651;SDS011;34442;52.362;-1.302;2023-06-10T07:07:23;13.18;;;6.15;;
48651;SDS011;34442;52.362;-1.302;2023-06-10T07:09:49;8.80;;;5.85;;
48651;SDS011;34442;52.362;-1.302;2023-06-10T07:12:15;11.38;;;5.15;;
48651;SDS011;34442;52.362;-1.302;2023-06-10T07:14:40;8.00;;;5.20;;
48651;SDS011;34442;52.362;-1.302;2023-06-10T07:17:05;11.43;;;7.05;;
48651;SDS011;34442;52.362;-1.302;2023-06-10T07:19:31;10.10;;;4.68;;
48651;SDS011;34442;52.362;-1.302;2023-06-10T07:21:56;9.73;;;5.80;;
48651;SDS011;34442;52.362;-1.302;2023-06-10T07:24:22;10.43;;;5.80;;
48651;SDS011;34442;52.362;-1.302;2023-06-10T07:26:47;9.63;;;4.78;;
48651;SDS011;34442;52.362;-1.302;2023-06-10T07:29:13;11.73;;;6.35;;
48651;SDS011;34442;52.362;-1.302;2023-06-10T07:31:38;7.63;;;4.35;;
48651;SDS011;34442;52.362;-1.302;2023-06-10T07:34:03;6.90;;;4.60;;
48651;SDS011;34442;52.362;-1.302;2023-06-10T07:36:29;11.60;;;5.85;;
48651;SDS011;34442;52.362;-1.302;2023-06-10T07:38:55;8.20;;;4.55;;
48651;SDS011;34442;52.362;-1.302;2023-06-10T07:41:20;7.43;;;4.30;;
48651;SDS011;34442;52.362;-1.302;2023-06-10T07:43:47;7.00;;;4.00;;
48651;SDS011;34442;52.362;-1.302;2023-06-10T07:46:13;8.18;;;4.60;;
48651;SDS011;34442;52.362;-1.302;2023-06-10T07:48:38;7.10;;;3.92;;
48651;SDS011;34442;52.362;-1.302;2023-06-10T07:51:03;7.47;;;4.25;;
48651;SDS011;34442;52.362;-1.302;2023-06-10T07:53:29;6.45;;;3.83;;
48651;SDS011;34442;52.362;-1.302;2023-06-10T07:55:55;7.53;;;4.47;;
48651;SDS011;34442;52.362;-1.302;2023-06-10T07:58:20;6.13;;;3.90;;
48651;SDS011;34442;52.362;-1.302;2023-06-10T08:00:47;5.22;;;3.45;;
48651;SDS011;34442;52.362;-1.302;2023-06-10T08:03:12;5.97;;;3.33;;
48651;SDS011;34442;52.362;-1.302;2023-06-10T08:05:39;9.43;;;4.97;;
48651;SDS011;34442;52.362;-1.302;2023-06-10T08:08:04;5.53;;;3.80;;
48651;SDS011;34442;52.362;-1.302;2023-06-10T08:10:30;6.65;;;3.53;;
48651;SDS011;34442;52.362;-1.302;2023-06-10T08:12:55;8.43;;;4.63;;
48651;SDS011;34442;52.362;-1.302;2023-06-10T08:15:21;7.35;;;4.55;;
48651;SDS011;34442;52.362;-1.302;2023-06-10T08:17:46;9.18;;;4.70;;
48651;SDS011;34442;52.362;-1.302;2023-06-10T08:20:12;9.73;;;5.38;;
48651;SDS011;34442;52.362;-1.302;2023-06-10T08:22:37;10.13;;;5.25;;
48651;SDS011;34442;52.362;-1.302;2023-06-10T08:25:03;9.77;;;5.18;;
48651;SDS011;34442;52.362;-1.302;2023-06-10T08:27:29;5.88;;;3.85;;
48651;SDS011;34442;52.362;-1.302;2023-06-10T08:29:54;5.80;;;3.22;;
48651;SDS011;34442;52.362;-1.302;2023-06-10T08:32:19;9.23;;;4.88;;
48651;SDS011;34442;52.362;-1.302;2023-06-10T08:34:45;7.13;;;4.50;;
48651;SDS011;34442;52.362;-1.302;2023-06-10T08:37:10;7.85;;;3.85;;
48651;SDS011;34442;52.362;-1.302;2023-06-10T08:39:36;7.07;;;4.55;;
48651;SDS011;34442;52.362;-1.302;2023-06-10T08:44:53;4.10;;;2.80;;
48651;SDS011;34442;52.362;-1.302;2023-06-10T08:47:21;6.28;;;4.03;;
48651;SDS011;34442;52.362;-1.302;2023-06-10T08:49:49;6.90;;;3.53;;
48651;SDS011;34442;52.362;-1.302;2023-06-10T08:52:19;6.20;;;3.55;;
48651;SDS011;34442;52.362;-1.302;2023-06-10T08:54:58;4.85;;;2.75;;
48651;SDS011;34442;52.362;-1.302;2023-06-10T08:57:25;8.40;;;4.28;;
48651;SDS011;34442;52.362;-1.302;2023-06-10T08:59:52;6.20;;;3.60;;
48651;SDS011;34442;52.362;-1.302;2023-06-10T09:02:19;8.68;;;4.25;;
48651;SDS011;34442;52.362;-1.302;2023-06-10T09:04:48;8.32;;;4.68;;
48651;SDS011;34442;52.362;-1.302;2023-06-10T09:07:18;7.80;;;3.75;;
48651;SDS011;34442;52.362;-1.302;2023-06-10T09:09:44;7.93;;;4.88;;
48651;SDS011;34442;52.362;-1.302;2023-06-10T09:12:10;6.78;;;3.92;;
48651;SDS011;34442;52.362;-1.302;2023-06-10T09:14:38;6.47;;;3.90;;
48651;SDS011;34442;52.362;-1.302;2023-06-10T09:17:03;6.32;;;3.50;;
48651;SDS011;34442;52.362;-1.302;2023-06-10T09:19:30;5.72;;;3.03;;
48651;SDS011;34442;52.362;-1.302;2023-06-10T09:21:55;6.93;;;3.72;;
48651;SDS011;34442;52.362;-1.302;2023-06-10T09:24:24;6.55;;;3.15;;
48651;SDS011;34442;52.362;-1.302;2023-06-10T09:26:50;7.43;;;3.63;;
48651;SDS011;34442;52.362;-1.302;2023-06-10T09:29:26;6.85;;;4.07;;
48651;SDS011;34442;52.362;-1.302;2023-06-10T09:31:52;8.32;;;5.07;;
48651;SDS011;34442;52.362;-1.302;2023-06-10T09:34:17;8.35;;;4.40;;
48651;SDS011;34442;52.362;-1.302;2023-06-10T09:36:43;11.30;;;6.38;;
48651;SDS011;34442;52.362;-1.302;2023-06-10T09:39:15;6.10;;;3.95;;
48651;SDS011;34442;52.362;-1.302;2023-06-10T09:41:42;6.72;;;4.28;;
48651;SDS011;34442;52.362;-1.302;2023-06-10T09:44:15;6.40;;;4.20;;
48651;SDS011;34442;52.362;-1.302;2023-06-10T09:46:44;5.25;;;3.42;;
48651;SDS011;34442;52.362;-1.302;2023-06-10T09:49:12;6.93;;;3.85;;
48651;SDS011;34442;52.362;-1.302;2023-06-10T09:51:37;8.75;;;4.72;;
48651;SDS011;34442;52.362;-1.302;2023-06-10T09:54:03;10.15;;;5.30;;
48651;SDS011;34442;52.362;-1.302;2023-06-10T09:56:32;7.70;;;4.97;;
48651;SDS011;34442;52.362;-1.302;2023-06-10T09:58:59;7.35;;;4.75;;
48651;SDS011;34442;52.362;-1.302;2023-06-10T10:01:24;6.85;;;3.92;;
48651;SDS011;34442;52.362;-1.302;2023-06-10T10:03:50;6.15;;;3.58;;
48651;SDS011;34442;52.362;-1.302;2023-06-10T10:06:16;7.13;;;4.00;;
48651;SDS011;34442;52.362;-1.302;2023-06-10T10:08:43;7.18;;;4.03;;
48651;SDS011;34442;52.362;-1.302;2023-06-10T10:11:10;6.82;;;3.30;;
48651;SDS011;34442;52.362;-1.302;2023-06-10T10:13:35;6.60;;;3.67;;
48651;SDS011;34442;52.362;-1.302;2023-06-10T10:16:09;5.68;;;3.55;;
48651;SDS011;34442;52.362;-1.302;2023-06-10T10:18:39;8.95;;;4.55;;
48651;SDS011;34442;52.362;-1.302;2023-06-10T10:21:06;8.88;;;5.13;;
48651;SDS011;34442;52.362;-1.302;2023-06-10T10:26:37;9.25;;;5.18;;
48651;SDS011;34442;52.362;-1.302;2023-06-10T10:29:14;7.00;;;4.82;;
48651;SDS011;34442;52.362;-1.302;2023-06-10T10:31:45;8.55;;;5.10;;
48651;SDS011;34442;52.362;-1.302;2023-06-10T10:34:16;11.73;;;5.10;;
48651;SDS011;34442;52.362;-1.302;2023-06-10T10:36:46;10.23;;;5.40;;
48651;SDS011;34442;52.362;-1.302;2023-06-10T10:39:13;7.97;;;4.75;;
48651;SDS011;34442;52.362;-1.302;2023-06-10T10:41:38;8.63;;;4.20;;
48651;SDS011;34442;52.362;-1.302;2023-06-10T10:44:05;5.72;;;3.78;;
48651;SDS011;34442;52.362;-1.302;2023-06-10T10:46:42;9.20;;;5.97;;
48651;SDS011;34442;52.362;-1.302;2023-06-10T10:49:09;9.13;;;5.03;;
48651;SDS011;34442;52.362;-1.302;2023-06-10T10:51:37;8.13;;;4.95;;
48651;SDS011;34442;52.362;-1.302;2023-06-10T10:56:38;10.60;;;5.22;;
48651;SDS011;34442;52.362;-1.302;2023-06-10T10:59:04;8.27;;;4.10;;
48651;SDS011;34442;52.362;-1.302;2023-06-10T11:01:40;7.95;;;4.55;;
48651;SDS011;34442;52.362;-1.302;2023-06-10T11:04:07;8.60;;;4.45;;
48651;SDS011;34442;52.362;-1.302;2023-06-10T11:06:34;7.63;;;4.45;;
48651;SDS011;34442;52.362;-1.302;2023-06-10T11:09:00;7.63;;;4.82;;
48651;SDS011;34442;52.362;-1.302;2023-06-10T11:11:26;6.30;;;3.92;;
48651;SDS011;34442;52.362;-1.302;2023-06-10T11:14:11;5.68;;;4.03;;
48651;SDS011;34442;52.362;-1.302;2023-06-10T11:19:09;10.43;;;5.60;;
48651;SDS011;34442;52.362;-1.302;2023-06-10T11:24:23;8.40;;;4.90;;
48651;SDS011;34442;52.362;-1.302;2023-06-10T11:26:51;7.95;;;4.35;;
48651;SDS011;34442;52.362;-1.302;2023-06-10T11:29:16;6.22;;;3.70;;
48651;SDS011;34442;52.362;-1.302;2023-06-10T11:31:43;6.05;;;4.03;;
48651;SDS011;34442;52.362;-1.302;2023-06-10T11:34:20;6.30;;;3.53;;
48651;SDS011;34442;52.362;-1.302;2023-06-10T11:36:50;5.70;;;3.72;;
48651;SDS011;34442;52.362;-1.302;2023-06-10T11:39:16;5.32;;;3.38;;
48651;SDS011;34442;52.362;-1.302;2023-06-10T11:41:45;7.07;;;4.55;;
48651;SDS011;34442;52.362;-1.302;2023-06-10T11:44:11;8.15;;;5.18;;
48651;SDS011;34442;52.362;-1.302;2023-06-10T11:46:38;6.50;;;4.43;;
48651;SDS011;34442;52.362;-1.302;2023-06-10T11:49:04;6.00;;;3.92;;
48651;SDS011;34442;52.362;-1.302;2023-06-10T11:51:34;7.03;;;3.95;;
48651;SDS011;34442;52.362;-1.302;2023-06-10T11:54:02;5.53;;;3.97;;
48651;SDS011;34442;52.362;-1.302;2023-06-10T11:56:28;7.68;;;5.20;;
48651;SDS011;34442;52.362;-1.302;2023-06-10T11:58:56;10.63;;;6.35;;
48651;SDS011;34442;52.362;-1.302;2023-06-10T12:01:29;7.30;;;4.60;;
48651;SDS011;34442;52.362;-1.302;2023-06-10T12:03:57;6.53;;;4.07;;
48651;SDS011;34442;52.362;-1.302;2023-06-10T12:06:23;6.88;;;4.55;;
48651;SDS011;34442;52.362;-1.302;2023-06-10T12:08:49;6.05;;;3.90;;
48651;SDS011;34442;52.362;-1.302;2023-06-10T12:11:14;4.80;;;3.42;;
48651;SDS011;34442;52.362;-1.302;2023-06-10T12:13:47;6.95;;;4.30;;
48651;SDS011;34442;52.362;-1.302;2023-06-10T12:16:14;5.00;;;3.20;;
48651;SDS011;34442;52.362;-1.302;2023-06-10T12:18:41;6.18;;;4.10;;
48651;SDS011;34442;52.362;-1.302;2023-06-10T12:21:23;6.07;;;3.90;;
48651;SDS011;34442;52.362;-1.302;2023-06-10T12:31:59;5.88;;;3.63;;
48651;SDS011;34442;52.362;-1.302;2023-06-10T12:34:33;5.57;;;3.20;;
48651;SDS011;34442;52.362;-1.302;2023-06-10T12:37:01;8.13;;;4.07;;
48651;SDS011;34442;52.362;-1.302;2023-06-10T12:39:29;6.10;;;4.07;;
48651;SDS011;34442;52.362;-1.302;2023-06-10T12:41:56;6.85;;;3.90;;
48651;SDS011;34442;52.362;-1.302;2023-06-10T12:44:29;6.53;;;4.72;;
48651;SDS011;34442;52.362;-1.302;2023-06-10T12:49:21;5.50;;;3.72;;
48651;SDS011;34442;52.362;-1.302;2023-06-10T12:51:47;7.13;;;4.57;;
48651;SDS011;34442;52.362;-1.302;2023-06-10T12:54:12;6.90;;;4.68;;
48651;SDS011;34442;52.362;-1.302;2023-06-10T12:56:38;6.65;;;5.30;;
48651;SDS011;34442;52.362;-1.302;2023-06-10T12:59:04;7.65;;;4.93;;
48651;SDS011;34442;52.362;-1.302;2023-06-10T13:01:29;5.60;;;4.10;;
48651;SDS011;34442;52.362;-1.302;2023-06-10T13:03:56;6.75;;;4.63;;
48651;SDS011;34442;52.362;-1.302;2023-06-10T13:06:22;5.35;;;3.80;;
48651;SDS011;34442;52.362;-1.302;2023-06-10T13:08:48;7.22;;;5.68;;
48651;SDS011;34442;52.362;-1.302;2023-06-10T13:11:13;6.30;;;4.13;;
48651;SDS011;34442;52.362;-1.302;2023-06-10T13:13:39;5.75;;;4.13;;
48651;SDS011;34442;52.362;-1.302;2023-06-10T13:16:05;5.88;;;3.80;;
48651;SDS011;34442;52.362;-1.302;2023-06-10T13:18:30;6.13;;;4.10;;
48651;SDS011;34442;52.362;-1.302;2023-06-10T13:21:02;5.45;;;3.95;;
48651;SDS011;34442;52.362;-1.302;2023-06-10T13:23:28;5.70;;;4.40;;
48651;SDS011;34442;52.362;-1.302;2023-06-10T13:25:54;6.05;;;4.57;;
48651;SDS011;34442;52.362;-1.302;2023-06-10T13:28:20;6.88;;;4.82;;
48651;SDS011;34442;52.362;-1.302;2023-06-10T13:30:49;5.20;;;4.10;;
48651;SDS011;34442;52.362;-1.302;2023-06-10T13:33:15;6.70;;;5.18;;
48651;SDS011;34442;52.362;-1.302;2023-06-10T13:35:40;5.30;;;4.20;;
48651;SDS011;34442;52.362;-1.302;2023-06-10T13:38:06;5.47;;;4.22;;
48651;SDS011;34442;52.362;-1.302;2023-06-10T13:40:32;6.15;;;4.60;;
48651;SDS011;34442;52.362;-1.302;2023-06-10T13:42:57;6.32;;;4.18;;
48651;SDS011;34442;52.362;-1.302;2023-06-10T13:45:23;8.35;;;5.88;;
48651;SDS011;34442;52.362;-1.302;2023-06-10T13:47:49;8.63;;;6.28;;
48651;SDS011;34442;52.362;-1.302;2023-06-10T13:50:15;6.57;;;5.15;;
48651;SDS011;34442;52.362;-1.302;2023-06-10T13:52:41;6.20;;;4.78;;
48651;SDS011;34442;52.362;-1.302;2023-06-10T13:55:06;6.28;;;5.13;;
48651;SDS011;34442;52.362;-1.302;2023-06-10T13:57:32;5.57;;;4.50;;
48651;SDS011;34442;52.362;-1.302;2023-06-10T13:59:58;6.18;;;4.60;;
48651;SDS011;34442;52.362;-1.302;2023-06-10T14:02:26;6.68;;;4.00;;
48651;SDS011;34442;52.362;-1.302;2023-06-10T14:04:51;5.72;;;4.13;;
48651;SDS011;34442;52.362;-1.302;2023-06-10T14:07:17;6.07;;;4.63;;
48651;SDS011;34442;52.362;-1.302;2023-06-10T14:09:42;5.85;;;3.60;;
48651;SDS011;34442;52.362;-1.302;2023-06-10T14:12:08;5.50;;;4.07;;
48651;SDS011;34442;52.362;-1.302;2023-06-10T14:14:37;5.50;;;4.10;;
48651;SDS011;34442;52.362;-1.302;2023-06-10T14:17:02;5.80;;;4.55;;
48651;SDS011;34442;52.362;-1.302;2023-06-10T14:19:29;5.20;;;3.90;;
48651;SDS011;34442;52.362;-1.302;2023-06-10T14:21:55;6.03;;;4.80;;
48651;SDS011;34442;52.362;-1.302;2023-06-10T14:24:20;5.97;;;4.47;;
48651;SDS011;34442;52.362;-1.302;2023-06-10T14:26:46;5.63;;;4.60;;
48651;SDS011;34442;52.362;-1.302;2023-06-10T14:29:12;5.97;;;4.05;;
48651;SDS011;34442;52.362;-1.302;2023-06-10T14:31:39;5.30;;;4.03;;
48651;SDS011;34442;52.362;-1.302;2023-06-10T14:34:05;4.97;;;3.78;;
48651;SDS011;34442;52.362;-1.302;2023-06-10T14:36:32;5.28;;;3.78;;
48651;SDS011;34442;52.362;-1.302;2023-06-10T14:38:58;4.80;;;3.58;;
48651;SDS011;34442;52.362;-1.302;2023-06-10T14:41:24;5.93;;;4.38;;
48651;SDS011;34442;52.362;-1.302;2023-06-10T14:43:50;4.97;;;3.80;;
48651;SDS011;34442;52.362;-1.302;2023-06-10T14:46:15;4.40;;;3.22;;
48651;SDS011;34442;52.362;-1.302;2023-06-10T14:48:41;5.30;;;3.45;;
48651;SDS011;34442;52.362;-1.302;2023-06-10T14:51:06;4.72;;;3.40;;
48651;SDS011;34442;52.362;-1.302;2023-06-10T14:53:32;5.30;;;3.60;;
48651;SDS011;34442;52.362;-1.302;2023-06-10T14:55:57;4.63;;;3.30;;
48651;SDS011;34442;52.362;-1.302;2023-06-10T14:58:23;6.38;;;3.42;;
48651;SDS011;34442;52.362;-1.302;2023-06-10T15:00:48;6.07;;;3.38;;
48651;SDS011;34442;52.362;-1.302;2023-06-10T15:03:14;4.55;;;3.13;;